sensor_id;sensor_type;location;lat;lon;timestamp;temperature;humidity
72380;SHT30;60354;47.798;12.472;2023-04-16T00:01:57;5.23;91.30
72380;SHT30;60354;47.798;12.472;2023-04-16T00:04:22;5.23;91.65
72380;SHT30;60354;47.798;12.472;2023-04-16T00:06:48;5.24;91.40
72380;SHT30;60354;47.798;12.472;2023-04-16T00:09:13;5.16;91.55
72380;SHT30;60354;47.798;12.472;2023-04-16T00:11:39;5.09;91.94
72380;SHT30;60354;47.798;12.472;2023-04-16T00:14:04;5.17;91.89
72380;SHT30;60354;47.798;12.472;2023-04-16T00:16:30;5.19;91.76
72380;SHT30;60354;47.798;12.472;2023-04-16T00:18:55;5.16;91.31
72380;SHT30;60354;47.798;12.472;2023-04-16T00:21:21;5.17;91.41
72380;SHT30;60354;47.798;12.472;2023-04-16T00:23:46;5.21;91.32
72380;SHT30;60354;47.798;12.472;2023-04-16T00:26:12;5.19;91.63
72380;SHT30;60354;47.798;12.472;2023-04-16T00:28:40;5.17;91.33
72380;SHT30;60354;47.798;12.472;2023-04-16T00:31:06;5.21;91.36
72380;SHT30;60354;47.798;12.472;2023-04-16T00:33:31;5.26;91.40
72380;SHT30;60354;47.798;12.472;2023-04-16T00:35:57;5.24;91.37
72380;SHT30;60354;47.798;12.472;2023-04-16T00:38:23;5.28;91.35
72380;SHT30;60354;47.798;12.472;2023-04-16T00:40:48;5.28;91.33
72380;SHT30;60354;47.798;12.472;2023-04-16T00:43:24;5.35;91.27
72380;SHT30;60354;47.798;12.472;2023-04-16T00:45:52;5.34;91.34
72380;SHT30;60354;47.798;12.472;2023-04-16T00:48:19;5.34;91.31
72380;SHT30;60354;47.798;12.472;2023-04-16T00:50:45;5.28;91.32
72380;SHT30;60354;47.798;12.472;2023-04-16T00:53:10;5.28;91.24
72380;SHT30;60354;47.798;12.472;2023-04-16T00:55:36;5.28;91.44
72380;SHT30;60354;47.798;12.472;2023-04-16T00:58:03;5.24;91.74
72380;SHT30;60354;47.798;12.472;2023-04-16T01:00:29;5.30;91.75
72380;SHT30;60354;47.798;12.472;2023-04-16T01:02:54;5.27;91.61
72380;SHT30;60354;47.798;12.472;2023-04-16T01:05:20;5.31;91.56
72380;SHT30;60354;47.798;12.472;2023-04-16T01:07:45;5.24;91.55
72380;SHT30;60354;47.798;12.472;2023-04-16T01:10:11;5.27;91.20
72380;SHT30;60354;47.798;12.472;2023-04-16T01:12:36;5.26;91.58
72380;SHT30;60354;47.798;12.472;2023-04-16T01:15:02;5.28;91.26
72380;SHT30;60354;47.798;12.472;2023-04-16T01:17:27;5.28;90.98
72380;SHT30;60354;47.798;12.472;2023-04-16T01:19:53;5.20;90.54
72380;SHT30;60354;47.798;12.472;2023-04-16T01:22:18;5.19;90.68
72380;SHT30;60354;47.798;12.472;2023-04-16T01:24:44;5.11;90.49
72380;SHT30;60354;47.798;12.472;2023-04-16T01:27:09;5.19;90.82
72380;SHT30;60354;47.798;12.472;2023-04-16T01:29:35;5.20;90.89
72380;SHT30;60354;47.798;12.472;2023-04-16T01:32:01;5.23;91.14
72380;SHT30;60354;47.798;12.472;2023-04-16T01:34:30;5.28;90.73
72380;SHT30;60354;47.798;12.472;2023-04-16T01:36:56;5.31;90.53
72380;SHT30;60354;47.798;12.472;2023-04-16T01:39:22;5.20;90.46
72380;SHT30;60354;47.798;12.472;2023-04-16T01:41:48;5.14;90.93
72380;SHT30;60354;47.798;12.472;2023-04-16T01:44:13;5.10;91.11
72380;SHT30;60354;47.798;12.472;2023-04-16T01:46:41;5.11;91.07
72380;SHT30;60354;47.798;12.472;2023-04-16T01:49:07;5.13;90.59
72380;SHT30;60354;47.798;12.472;2023-04-16T01:51:33;5.14;90.44
72380;SHT30;60354;47.798;12.472;2023-04-16T01:53:58;5.21;90.37
72380;SHT30;60354;47.798;12.472;2023-04-16T01:56:24;5.20;90.47
72380;SHT30;60354;47.798;12.472;2023-04-16T01:58:51;5.10;90.63
72380;SHT30;60354;47.798;12.472;2023-04-16T02:01:17;5.11;90.52
72380;SHT30;60354;47.798;12.472;2023-04-16T02:03:44;5.11;90.75
72380;SHT30;60354;47.798;12.472;2023-04-16T02:06:10;5.16;91.04
72380;SHT30;60354;47.798;12.472;2023-04-16T02:08:36;5.16;91.28
72380;SHT30;60354;47.798;12.472;2023-04-16T02:11:01;5.10;91.24
72380;SHT30;60354;47.798;12.472;2023-04-16T02:13:27;5.13;91.01
72380;SHT30;60354;47.798;12.472;2023-04-16T02:15:52;5.14;91.40
72380;SHT30;60354;47.798;12.472;2023-04-16T02:18:33;5.19;91.50
72380;SHT30;60354;47.798;12.472;2023-04-16T02:20:58;5.19;91.48
72380;SHT30;60354;47.798;12.472;2023-04-16T02:23:24;5.17;91.56
72380;SHT30;60354;47.798;12.472;2023-04-16T02:25:50;5.24;91.37
72380;SHT30;60354;47.798;12.472;2023-04-16T02:28:16;5.24;91.17
72380;SHT30;60354;47.798;12.472;2023-04-16T02:30:44;5.20;91.36
72380;SHT30;60354;47.798;12.472;2023-04-16T02:33:11;5.26;91.37
72380;SHT30;60354;47.798;12.472;2023-04-16T02:35:42;5.23;91.48
72380;SHT30;60354;47.798;12.472;2023-04-16T02:38:08;5.23;91.36
72380;SHT30;60354;47.798;12.472;2023-04-16T02:40:35;5.23;91.42
72380;SHT30;60354;47.798;12.472;2023-04-16T02:43:01;5.24;91.29
72380;SHT30;60354;47.798;12.472;2023-04-16T02:45:26;5.21;91.45
72380;SHT30;60354;47.798;12.472;2023-04-16T02:47:52;5.17;91.58
72380;SHT30;60354;47.798;12.472;2023-04-16T02:50:17;5.17;91.47
72380;SHT30;60354;47.798;12.472;2023-04-16T02:52:44;5.13;91.40
72380;SHT30;60354;47.798;12.472;2023-04-16T02:55:10;5.19;91.24
72380;SHT30;60354;47.798;12.472;2023-04-16T02:57:35;5.20;91.51
72380;SHT30;60354;47.798;12.472;2023-04-16T03:00:01;5.17;90.92
72380;SHT30;60354;47.798;12.472;2023-04-16T03:02:29;5.04;89.99
72380;SHT30;60354;47.798;12.472;2023-04-16T03:04:55;5.06;89.64
72380;SHT30;60354;47.798;12.472;2023-04-16T03:07:20;5.10;89.93
72380;SHT30;60354;47.798;12.472;2023-04-16T03:09:46;5.10;90.33
72380;SHT30;60354;47.798;12.472;2023-04-16T03:12:11;5.11;90.07
72380;SHT30;60354;47.798;12.472;2023-04-16T03:14:37;5.16;90.22
72380;SHT30;60354;47.798;12.472;2023-04-16T03:17:02;5.21;90.28
72380;SHT30;60354;47.798;12.472;2023-04-16T03:19:28;5.23;90.42
72380;SHT30;60354;47.798;12.472;2023-04-16T03:21:53;5.19;90.25
72380;SHT30;60354;47.798;12.472;2023-04-16T03:24:19;5.19;90.63
72380;SHT30;60354;47.798;12.472;2023-04-16T03:26:47;5.07;90.25
72380;SHT30;60354;47.798;12.472;2023-04-16T03:29:13;5.09;90.49
72380;SHT30;60354;47.798;12.472;2023-04-16T03:31:38;5.09;90.24
72380;SHT30;60354;47.798;12.472;2023-04-16T03:34:04;4.96;90.33
72380;SHT30;60354;47.798;12.472;2023-04-16T03:36:30;5.00;90.22
72380;SHT30;60354;47.798;12.472;2023-04-16T03:38:56;4.99;89.54
72380;SHT30;60354;47.798;12.472;2023-04-16T03:41:22;5.03;89.64
72380;SHT30;60354;47.798;12.472;2023-04-16T03:43:48;4.93;89.39
72380;SHT30;60354;47.798;12.472;2023-04-16T03:46:14;4.96;89.75
72380;SHT30;60354;47.798;12.472;2023-04-16T03:48:40;4.99;89.88
72380;SHT30;60354;47.798;12.472;2023-04-16T03:51:05;4.99;90.32
72380;SHT30;60354;47.798;12.472;2023-04-16T03:53:32;5.01;90.00
72380;SHT30;60354;47.798;12.472;2023-04-16T03:55:58;5.04;90.35
72380;SHT30;60354;47.798;12.472;2023-04-16T03:58:24;5.07;90.34
72380;SHT30;60354;47.798;12.472;2023-04-16T04:00:52;5.01;90.62
72380;SHT30;60354;47.798;12.472;2023-04-16T04:03:18;5.01;90.89
72380;SHT30;60354;47.798;12.472;2023-04-16T04:05:46;4.99;90.45
72380;SHT30;60354;47.798;12.472;2023-04-16T04:08:14;5.03;90.88
72380;SHT30;60354;47.798;12.472;2023-04-16T04:10:40;5.03;90.80
72380;SHT30;60354;47.798;12.472;2023-04-16T04:13:08;5.00;90.89
72380;SHT30;60354;47.798;12.472;2023-04-16T04:15:34;5.01;90.58
72380;SHT30;60354;47.798;12.472;2023-04-16T04:18:00;5.01;90.89
72380;SHT30;60354;47.798;12.472;2023-04-16T04:20:25;5.01;90.53
72380;SHT30;60354;47.798;12.472;2023-04-16T04:22:52;5.03;90.63
72380;SHT30;60354;47.798;12.472;2023-04-16T04:25:20;5.04;90.69
72380;SHT30;60354;47.798;12.472;2023-04-16T04:27:46;5.09;90.74
72380;SHT30;60354;47.798;12.472;2023-04-16T04:30:11;5.11;90.61
72380;SHT30;60354;47.798;12.472;2023-04-16T04:32:38;5.17;90.77
72380;SHT30;60354;47.798;12.472;2023-04-16T04:35:03;5.19;90.66
72380;SHT30;60354;47.798;12.472;2023-04-16T04:37:29;5.17;90.47
72380;SHT30;60354;47.798;12.472;2023-04-16T04:39:54;5.17;90.46
72380;SHT30;60354;47.798;12.472;2023-04-16T04:42:20;5.17;90.37
72380;SHT30;60354;47.798;12.472;2023-04-16T04:44:46;5.17;90.71
72380;SHT30;60354;47.798;12.472;2023-04-16T04:47:13;5.20;90.46
72380;SHT30;60354;47.798;12.472;2023-04-16T04:49:39;5.23;90.58
72380;SHT30;60354;47.798;12.472;2023-04-16T04:52:05;5.20;91.15
72380;SHT30;60354;47.798;12.472;2023-04-16T04:54:31;5.13;91.49
72380;SHT30;60354;47.798;12.472;2023-04-16T04:56:57;5.19;91.26
72380;SHT30;60354;47.798;12.472;2023-04-16T04:59:23;5.20;91.44
72380;SHT30;60354;47.798;12.472;2023-04-16T05:01:49;5.20;91.52
72380;SHT30;60354;47.798;12.472;2023-04-16T05:04:15;5.20;91.36
72380;SHT30;60354;47.798;12.472;2023-04-16T05:06:41;5.16;91.76
72380;SHT30;60354;47.798;12.472;2023-04-16T05:09:06;5.17;91.95
72380;SHT30;60354;47.798;12.472;2023-04-16T05:11:40;5.16;92.00
72380;SHT30;60354;47.798;12.472;2023-04-16T05:14:06;5.20;91.84
72380;SHT30;60354;47.798;12.472;2023-04-16T05:16:31;5.24;92.02
72380;SHT30;60354;47.798;12.472;2023-04-16T05:18:57;5.21;92.02
72380;SHT30;60354;47.798;12.472;2023-04-16T05:21:23;5.21;91.88
72380;SHT30;60354;47.798;12.472;2023-04-16T05:23:48;5.19;92.12
72380;SHT30;60354;47.798;12.472;2023-04-16T05:26:14;5.17;92.13
72380;SHT30;60354;47.798;12.472;2023-04-16T05:28:40;5.14;92.61
72380;SHT30;60354;47.798;12.472;2023-04-16T05:31:05;5.20;92.48
72380;SHT30;60354;47.798;12.472;2023-04-16T05:33:31;5.20;92.38
72380;SHT30;60354;47.798;12.472;2023-04-16T05:35:56;5.24;92.48
72380;SHT30;60354;47.798;12.472;2023-04-16T05:38:21;5.28;92.47
72380;SHT30;60354;47.798;12.472;2023-04-16T05:40:47;5.35;92.10
72380;SHT30;60354;47.798;12.472;2023-04-16T05:43:12;5.38;92.04
72380;SHT30;60354;47.798;12.472;2023-04-16T05:45:38;5.42;92.05
72380;SHT30;60354;47.798;12.472;2023-04-16T05:48:08;5.34;92.03
72380;SHT30;60354;47.798;12.472;2023-04-16T05:50:34;5.35;92.06
72380;SHT30;60354;47.798;12.472;2023-04-16T05:53:01;5.34;92.08
72380;SHT30;60354;47.798;12.472;2023-04-16T05:55:27;5.34;92.02
72380;SHT30;60354;47.798;12.472;2023-04-16T05:57:52;5.34;91.90
72380;SHT30;60354;47.798;12.472;2023-04-16T06:00:19;5.34;91.84
72380;SHT30;60354;47.798;12.472;2023-04-16T06:02:44;5.34;91.66
72380;SHT30;60354;47.798;12.472;2023-04-16T06:05:10;5.34;91.43
72380;SHT30;60354;47.798;12.472;2023-04-16T06:07:35;5.44;91.45
72380;SHT30;60354;47.798;12.472;2023-04-16T06:10:01;5.48;91.35
72380;SHT30;60354;47.798;12.472;2023-04-16T06:12:27;5.48;91.15
72380;SHT30;60354;47.798;12.472;2023-04-16T06:14:53;5.51;90.87
72380;SHT30;60354;47.798;12.472;2023-04-16T06:17:19;5.54;90.82
72380;SHT30;60354;47.798;12.472;2023-04-16T06:19:44;5.58;90.74
72380;SHT30;60354;47.798;12.472;2023-04-16T06:22:10;5.58;90.72
72380;SHT30;60354;47.798;12.472;2023-04-16T06:24:36;5.59;90.92
72380;SHT30;60354;47.798;12.472;2023-04-16T06:27:01;5.66;91.09
72380;SHT30;60354;47.798;12.472;2023-04-16T06:29:27;5.72;90.98
72380;SHT30;60354;47.798;12.472;2023-04-16T06:31:53;5.75;90.96
72380;SHT30;60354;47.798;12.472;2023-04-16T06:34:19;5.73;91.14
72380;SHT30;60354;47.798;12.472;2023-04-16T06:36:44;5.78;91.84
72380;SHT30;60354;47.798;12.472;2023-04-16T06:39:10;5.85;91.71
72380;SHT30;60354;47.798;12.472;2023-04-16T06:41:35;5.99;91.53
72380;SHT30;60354;47.798;12.472;2023-04-16T06:44:01;6.13;91.29
72380;SHT30;60354;47.798;12.472;2023-04-16T06:46:26;6.17;90.94
72380;SHT30;60354;47.798;12.472;2023-04-16T06:48:52;6.17;89.41
72380;SHT30;60354;47.798;12.472;2023-04-16T06:51:17;6.23;90.18
72380;SHT30;60354;47.798;12.472;2023-04-16T06:53:42;6.29;90.36
72380;SHT30;60354;47.798;12.472;2023-04-16T06:56:08;6.36;89.67
72380;SHT30;60354;47.798;12.472;2023-04-16T06:58:33;6.40;89.45
72380;SHT30;60354;47.798;12.472;2023-04-16T07:00:59;6.41;89.02
72380;SHT30;60354;47.798;12.472;2023-04-16T07:03:25;6.43;88.74
72380;SHT30;60354;47.798;12.472;2023-04-16T07:05:50;6.38;88.83
72380;SHT30;60354;47.798;12.472;2023-04-16T07:08:16;6.36;88.43
72380;SHT30;60354;47.798;12.472;2023-04-16T07:10:41;6.34;88.80
72380;SHT30;60354;47.798;12.472;2023-04-16T07:13:07;6.36;87.58
72380;SHT30;60354;47.798;12.472;2023-04-16T07:15:32;6.40;88.43
72380;SHT30;60354;47.798;12.472;2023-04-16T07:17:58;6.37;88.36
72380;SHT30;60354;47.798;12.472;2023-04-16T07:20:23;6.34;88.11
72380;SHT30;60354;47.798;12.472;2023-04-16T07:22:49;6.37;87.29
72380;SHT30;60354;47.798;12.472;2023-04-16T07:25:14;6.40;87.20
72380;SHT30;60354;47.798;12.472;2023-04-16T07:27:40;6.40;87.07
72380;SHT30;60354;47.798;12.472;2023-04-16T07:30:06;6.48;87.44
72380;SHT30;60354;47.798;12.472;2023-04-16T07:32:32;6.57;87.02
72380;SHT30;60354;47.798;12.472;2023-04-16T07:34:57;6.60;86.97
72380;SHT30;60354;47.798;12.472;2023-04-16T07:37:23;6.60;86.03
72380;SHT30;60354;47.798;12.472;2023-04-16T07:39:48;6.64;85.96
72380;SHT30;60354;47.798;12.472;2023-04-16T07:42:14;6.74;85.91
72380;SHT30;60354;47.798;12.472;2023-04-16T07:44:39;6.84;85.10
72380;SHT30;60354;47.798;12.472;2023-04-16T07:47:05;6.93;85.88
72380;SHT30;60354;47.798;12.472;2023-04-16T07:49:30;7.11;86.39
72380;SHT30;60354;47.798;12.472;2023-04-16T07:51:56;7.19;85.60
72380;SHT30;60354;47.798;12.472;2023-04-16T07:54:21;7.34;84.69
72380;SHT30;60354;47.798;12.472;2023-04-16T07:56:50;7.34;84.38
72380;SHT30;60354;47.798;12.472;2023-04-16T07:59:19;7.42;84.80
72380;SHT30;60354;47.798;12.472;2023-04-16T08:01:44;7.46;86.08
72380;SHT30;60354;47.798;12.472;2023-04-16T08:04:10;7.56;84.25
72380;SHT30;60354;47.798;12.472;2023-04-16T08:06:35;7.52;84.18
72380;SHT30;60354;47.798;12.472;2023-04-16T08:09:02;7.42;85.34
72380;SHT30;60354;47.798;12.472;2023-04-16T08:11:27;7.42;84.62
72380;SHT30;60354;47.798;12.472;2023-04-16T08:13:53;7.36;85.47
72380;SHT30;60354;47.798;12.472;2023-04-16T08:16:18;7.49;85.11
72380;SHT30;60354;47.798;12.472;2023-04-16T08:18:43;7.60;83.13
72380;SHT30;60354;47.798;12.472;2023-04-16T08:21:09;7.69;82.87
72380;SHT30;60354;47.798;12.472;2023-04-16T08:23:35;7.81;83.57
72380;SHT30;60354;47.798;12.472;2023-04-16T08:26:00;7.75;82.83
72380;SHT30;60354;47.798;12.472;2023-04-16T08:28:26;7.67;82.46
72380;SHT30;60354;47.798;12.472;2023-04-16T08:30:51;7.75;82.73
72380;SHT30;60354;47.798;12.472;2023-04-16T08:33:17;7.78;82.82
72380;SHT30;60354;47.798;12.472;2023-04-16T08:35:42;7.85;83.64
72380;SHT30;60354;47.798;12.472;2023-04-16T08:38:08;7.84;82.78
72380;SHT30;60354;47.798;12.472;2023-04-16T08:40:36;7.71;82.67
72380;SHT30;60354;47.798;12.472;2023-04-16T08:43:04;7.73;82.77
72380;SHT30;60354;47.798;12.472;2023-04-16T08:45:33;7.81;82.33
72380;SHT30;60354;47.798;12.472;2023-04-16T08:48:00;7.91;82.48
72380;SHT30;60354;47.798;12.472;2023-04-16T08:50:26;8.02;83.04
72380;SHT30;60354;47.798;12.472;2023-04-16T08:52:56;8.04;81.53
72380;SHT30;60354;47.798;12.472;2023-04-16T08:55:25;8.11;81.30
72380;SHT30;60354;47.798;12.472;2023-04-16T08:57:59;8.15;81.74
72380;SHT30;60354;47.798;12.472;2023-04-16T09:00:25;8.12;81.63
72380;SHT30;60354;47.798;12.472;2023-04-16T09:02:52;8.22;82.21
72380;SHT30;60354;47.798;12.472;2023-04-16T09:05:18;8.24;81.69
72380;SHT30;60354;47.798;12.472;2023-04-16T09:07:47;8.29;82.23
72380;SHT30;60354;47.798;12.472;2023-04-16T09:10:16;8.35;80.16
72380;SHT30;60354;47.798;12.472;2023-04-16T09:12:42;8.35;81.89
72380;SHT30;60354;47.798;12.472;2023-04-16T09:15:12;8.38;81.47
72380;SHT30;60354;47.798;12.472;2023-04-16T09:17:38;8.24;80.88
72380;SHT30;60354;47.798;12.472;2023-04-16T09:20:05;8.16;81.50
72380;SHT30;60354;47.798;12.472;2023-04-16T09:22:35;8.22;82.73
72380;SHT30;60354;47.798;12.472;2023-04-16T09:25:01;8.35;81.43
72380;SHT30;60354;47.798;12.472;2023-04-16T09:27:27;8.45;81.52
72380;SHT30;60354;47.798;12.472;2023-04-16T09:29:54;8.55;81.34
72380;SHT30;60354;47.798;12.472;2023-04-16T09:32:24;8.59;81.09
72380;SHT30;60354;47.798;12.472;2023-04-16T09:37:20;8.67;80.42
72380;SHT30;60354;47.798;12.472;2023-04-16T09:39:53;8.70;80.69
72380;SHT30;60354;47.798;12.472;2023-04-16T09:42:30;8.76;80.64
72380;SHT30;60354;47.798;12.472;2023-04-16T09:44:56;8.77;79.19
72380;SHT30;60354;47.798;12.472;2023-04-16T09:47:24;8.72;78.97
72380;SHT30;60354;47.798;12.472;2023-04-16T09:49:50;8.57;80.12
72380;SHT30;60354;47.798;12.472;2023-04-16T09:52:18;8.66;80.87
72380;SHT30;60354;47.798;12.472;2023-04-16T09:54:48;8.80;80.36
72380;SHT30;60354;47.798;12.472;2023-04-16T09:57:17;9.01;79.95
72380;SHT30;60354;47.798;12.472;2023-04-16T09:59:45;9.30;79.54
72380;SHT30;60354;47.798;12.472;2023-04-16T10:02:11;9.31;77.49
72380;SHT30;60354;47.798;12.472;2023-04-16T10:04:47;9.23;77.25
72380;SHT30;60354;47.798;12.472;2023-04-16T10:07:12;9.13;77.80
72380;SHT30;60354;47.798;12.472;2023-04-16T10:09:38;9.21;78.93
72380;SHT30;60354;47.798;12.472;2023-04-16T10:12:05;9.20;78.27
72380;SHT30;60354;47.798;12.472;2023-04-16T10:14:31;9.23;77.58
72380;SHT30;60354;47.798;12.472;2023-04-16T10:16:56;9.25;77.82
72380;SHT30;60354;47.798;12.472;2023-04-16T10:19:24;9.30;77.52
72380;SHT30;60354;47.798;12.472;2023-04-16T10:21:49;9.30;77.43
72380;SHT30;60354;47.798;12.472;2023-04-16T10:24:15;9.31;77.09
72380;SHT30;60354;47.798;12.472;2023-04-16T10:26:42;9.36;77.46
72380;SHT30;60354;47.798;12.472;2023-04-16T10:29:08;9.51;76.86
72380;SHT30;60354;47.798;12.472;2023-04-16T10:31:35;9.55;76.93
72380;SHT30;60354;47.798;12.472;2023-04-16T10:34:02;9.41;76.71
72380;SHT30;60354;47.798;12.472;2023-04-16T10:36:27;9.25;76.83
72380;SHT30;60354;47.798;12.472;2023-04-16T10:39:02;9.28;77.00
72380;SHT30;60354;47.798;12.472;2023-04-16T10:41:31;9.18;76.80
72380;SHT30;60354;47.798;12.472;2023-04-16T10:44:04;9.14;77.25
72380;SHT30;60354;47.798;12.472;2023-04-16T10:46:33;9.27;78.03
72380;SHT30;60354;47.798;12.472;2023-04-16T10:49:12;9.27;77.93
72380;SHT30;60354;47.798;12.472;2023-04-16T10:51:39;9.39;77.91
72380;SHT30;60354;47.798;12.472;2023-04-16T10:56:35;9.31;77.41
72380;SHT30;60354;47.798;12.472;2023-04-16T10:59:05;9.30;76.57
72380;SHT30;60354;47.798;12.472;2023-04-16T11:01:33;9.32;77.10
72380;SHT30;60354;47.798;12.472;2023-04-16T11:03:59;9.36;77.29
72380;SHT30;60354;47.798;12.472;2023-04-16T11:06:28;9.31;76.38
72380;SHT30;60354;47.798;12.472;2023-04-16T11:08:54;9.38;76.61
72380;SHT30;60354;47.798;12.472;2023-04-16T11:11:20;9.41;76.63
72380;SHT30;60354;47.798;12.472;2023-04-16T11:13:46;9.49;76.64
72380;SHT30;60354;47.798;12.472;2023-04-16T11:16:15;9.65;77.02
72380;SHT30;60354;47.798;12.472;2023-04-16T11:18:41;9.61;75.91
72380;SHT30;60354;47.798;12.472;2023-04-16T11:21:10;9.55;76.12
72380;SHT30;60354;47.798;12.472;2023-04-16T11:26:26;9.25;78.01
72380;SHT30;60354;47.798;12.472;2023-04-16T11:28:54;9.32;77.79
72380;SHT30;60354;47.798;12.472;2023-04-16T11:31:20;9.38;77.71
72380;SHT30;60354;47.798;12.472;2023-04-16T11:33:47;9.44;77.25
72380;SHT30;60354;47.798;12.472;2023-04-16T11:36:13;9.58;77.20
72380;SHT30;60354;47.798;12.472;2023-04-16T11:38:38;9.71;75.99
72380;SHT30;60354;47.798;12.472;2023-04-16T11:41:08;9.86;76.17
72380;SHT30;60354;47.798;12.472;2023-04-16T11:43:34;9.62;75.27
72380;SHT30;60354;47.798;12.472;2023-04-16T11:46:02;9.66;75.72
72380;SHT30;60354;47.798;12.472;2023-04-16T11:51:15;9.44;75.47
72380;SHT30;60354;47.798;12.472;2023-04-16T11:53:50;9.46;76.15
72380;SHT30;60354;47.798;12.472;2023-04-16T11:56:33;9.48;76.72
72380;SHT30;60354;47.798;12.472;2023-04-16T11:59:09;9.35;76.60
72380;SHT30;60354;47.798;12.472;2023-04-16T12:01:36;9.35;76.37
72380;SHT30;60354;47.798;12.472;2023-04-16T12:04:02;9.41;76.72
72380;SHT30;60354;47.798;12.472;2023-04-16T12:06:28;9.38;76.36
72380;SHT30;60354;47.798;12.472;2023-04-16T12:08:53;9.38;77.75
72380;SHT30;60354;47.798;12.472;2023-04-16T12:11:19;9.46;76.38
72380;SHT30;60354;47.798;12.472;2023-04-16T12:14:10;9.55;76.27
72380;SHT30;60354;47.798;12.472;2023-04-16T12:16:36;9.69;76.35
72380;SHT30;60354;47.798;12.472;2023-04-16T12:19:03;9.76;76.44
72380;SHT30;60354;47.798;12.472;2023-04-16T12:21:39;9.87;75.54
72380;SHT30;60354;47.798;12.472;2023-04-16T12:24:06;9.82;74.22
72380;SHT30;60354;47.798;12.472;2023-04-16T12:26:40;9.87;76.06
72380;SHT30;60354;47.798;12.472;2023-04-16T12:29:20;9.85;76.44
72380;SHT30;60354;47.798;12.472;2023-04-16T12:31:48;9.79;75.42
72380;SHT30;60354;47.798;12.472;2023-04-16T12:34:14;9.81;76.57
72380;SHT30;60354;47.798;12.472;2023-04-16T12:36:40;9.79;76.15
72380;SHT30;60354;47.798;12.472;2023-04-16T12:39:06;9.72;74.65
72380;SHT30;60354;47.798;12.472;2023-04-16T12:41:35;9.69;75.76
72380;SHT30;60354;47.798;12.472;2023-04-16T12:44:14;9.54;74.83
72380;SHT30;60354;47.798;12.472;2023-04-16T12:46:41;9.58;76.64
72380;SHT30;60354;47.798;12.472;2023-04-16T12:49:07;9.63;74.75
72380;SHT30;60354;47.798;12.472;2023-04-16T12:51:34;9.85;74.97
72380;SHT30;60354;47.798;12.472;2023-04-16T12:54:01;9.90;74.89
72380;SHT30;60354;47.798;12.472;2023-04-16T12:56:27;9.92;75.03
72380;SHT30;60354;47.798;12.472;2023-04-16T12:58:53;9.75;75.15
72380;SHT30;60354;47.798;12.472;2023-04-16T13:01:18;9.78;74.89
72380;SHT30;60354;47.798;12.472;2023-04-16T13:03:45;9.72;75.18
72380;SHT30;60354;47.798;12.472;2023-04-16T13:06:11;9.75;76.28
72380;SHT30;60354;47.798;12.472;2023-04-16T13:08:37;9.82;75.76
72380;SHT30;60354;47.798;12.472;2023-04-16T13:11:02;9.83;75.24
72380;SHT30;60354;47.798;12.472;2023-04-16T13:13:28;9.90;75.44
72380;SHT30;60354;47.798;12.472;2023-04-16T13:15:54;9.87;74.77
72380;SHT30;60354;47.798;12.472;2023-04-16T13:18:19;9.90;74.18
72380;SHT30;60354;47.798;12.472;2023-04-16T13:20:45;9.85;74.83
72380;SHT30;60354;47.798;12.472;2023-04-16T13:23:10;9.86;75.18
72380;SHT30;60354;47.798;12.472;2023-04-16T13:25:36;9.86;74.89
72380;SHT30;60354;47.798;12.472;2023-04-16T13:28:01;9.89;75.01
72380;SHT30;60354;47.798;12.472;2023-04-16T13:30:27;10.05;74.03
72380;SHT30;60354;47.798;12.472;2023-04-16T13:32:54;10.10;74.06
72380;SHT30;60354;47.798;12.472;2023-04-16T13:35:20;10.16;73.73
72380;SHT30;60354;47.798;12.472;2023-04-16T13:37:45;10.26;73.95
72380;SHT30;60354;47.798;12.472;2023-04-16T13:40:11;10.38;73.74
72380;SHT30;60354;47.798;12.472;2023-04-16T13:42:36;10.44;73.93
72380;SHT30;60354;47.798;12.472;2023-04-16T13:45:02;10.55;73.21
72380;SHT30;60354;47.798;12.472;2023-04-16T13:47:27;10.53;72.18
72380;SHT30;60354;47.798;12.472;2023-04-16T13:49:53;10.63;72.63
72380;SHT30;60354;47.798;12.472;2023-04-16T13:52:18;10.72;72.42
72380;SHT30;60354;47.798;12.472;2023-04-16T13:54:44;10.71;73.20
72380;SHT30;60354;47.798;12.472;2023-04-16T13:57:17;10.61;73.21
72380;SHT30;60354;47.798;12.472;2023-04-16T13:59:44;10.74;72.53
72380;SHT30;60354;47.798;12.472;2023-04-16T14:02:10;10.78;72.24
72380;SHT30;60354;47.798;12.472;2023-04-16T14:04:35;10.71;72.35
72380;SHT30;60354;47.798;12.472;2023-04-16T14:07:01;10.71;71.89
72380;SHT30;60354;47.798;12.472;2023-04-16T14:09:26;10.65;73.24
72380;SHT30;60354;47.798;12.472;2023-04-16T14:11:52;10.64;73.69
72380;SHT30;60354;47.798;12.472;2023-04-16T14:14:17;10.54;72.26
72380;SHT30;60354;47.798;12.472;2023-04-16T14:16:43;10.57;72.84
72380;SHT30;60354;47.798;12.472;2023-04-16T14:19:08;10.60;72.83
72380;SHT30;60354;47.798;12.472;2023-04-16T14:21:34;10.41;72.04
72380;SHT30;60354;47.798;12.472;2023-04-16T14:24:00;10.37;73.52
72380;SHT30;60354;47.798;12.472;2023-04-16T14:26:26;10.47;73.71
72380;SHT30;60354;47.798;12.472;2023-04-16T14:28:51;10.58;73.51
72380;SHT30;60354;47.798;12.472;2023-04-16T14:31:17;10.67;73.20
72380;SHT30;60354;47.798;12.472;2023-04-16T14:33:44;10.63;72.32
72380;SHT30;60354;47.798;12.472;2023-04-16T14:36:10;10.54;73.06
72380;SHT30;60354;47.798;12.472;2023-04-16T14:38:35;10.64;72.46
72380;SHT30;60354;47.798;12.472;2023-04-16T14:41:01;10.81;72.74
72380;SHT30;60354;47.798;12.472;2023-04-16T14:43:26;10.94;72.32
72380;SHT30;60354;47.798;12.472;2023-04-16T14:45:52;10.94;71.38
72380;SHT30;60354;47.798;12.472;2023-04-16T14:48:17;10.79;71.28
72380;SHT30;60354;47.798;12.472;2023-04-16T14:50:43;10.84;71.91
72380;SHT30;60354;47.798;12.472;2023-04-16T14:53:10;10.91;71.85
72380;SHT30;60354;47.798;12.472;2023-04-16T14:55:36;10.71;71.70
72380;SHT30;60354;47.798;12.472;2023-04-16T14:58:01;10.60;71.80
72380;SHT30;60354;47.798;12.472;2023-04-16T15:00:27;10.64;71.49
72380;SHT30;60354;47.798;12.472;2023-04-16T15:02:55;10.74;71.32
72380;SHT30;60354;47.798;12.472;2023-04-16T15:05:21;10.82;71.28
72380;SHT30;60354;47.798;12.472;2023-04-16T15:07:46;10.94;71.63
72380;SHT30;60354;47.798;12.472;2023-04-16T15:10:12;10.86;71.27
72380;SHT30;60354;47.798;12.472;2023-04-16T15:12:38;10.78;71.17
72380;SHT30;60354;47.798;12.472;2023-04-16T15:15:07;10.75;71.40
72380;SHT30;60354;47.798;12.472;2023-04-16T15:17:33;10.82;70.77
72380;SHT30;60354;47.798;12.472;2023-04-16T15:19:58;10.75;71.16
72380;SHT30;60354;47.798;12.472;2023-04-16T15:22:24;10.72;71.95
72380;SHT30;60354;47.798;12.472;2023-04-16T15:24:50;10.76;70.84
72380;SHT30;60354;47.798;12.472;2023-04-16T15:27:16;10.72;71.39
72380;SHT30;60354;47.798;12.472;2023-04-16T15:29:42;10.63;71.06
72380;SHT30;60354;47.798;12.472;2023-04-16T15:32:11;10.51;71.91
72380;SHT30;60354;47.798;12.472;2023-04-16T15:34:36;10.45;71.78
72380;SHT30;60354;47.798;12.472;2023-04-16T15:37:02;10.44;72.14